createdAt,value
2018-12-27T00:00:15.809Z,6.10
2018-12-27T00:02:45.121Z,6.10
2018-12-27T00:05:12.426Z,6.10
2018-12-27T00:07:39.807Z,6.00
2018-12-27T00:10:07.269Z,6.10
2018-12-27T00:12:34.810Z,6.10
2018-12-27T00:15:02.646Z,6.00
2018-12-27T00:17:30.141Z,6.00
2018-12-27T00:19:57.608Z,6.00
2018-12-27T00:22:25.194Z,6.00
2018-12-27T00:24:52.974Z,6.00
2018-12-27T00:27:20.450Z,6.00
2018-12-27T00:29:47.749Z,6.00
2018-12-27T00:32:15.337Z,6.00
2018-12-27T00:34:42.950Z,6.00
2018-12-27T00:37:10.132Z,6.00
2018-12-27T00:39:37.471Z,5.90
2018-12-27T00:42:04.910Z,6.00
2018-12-27T00:44:32.137Z,5.90
2018-12-27T00:46:59.772Z,5.90
2018-12-27T00:49:27.281Z,5.90
2018-12-27T00:52:06.778Z,5.90
2018-12-27T00:54:34.345Z,5.90
2018-12-27T00:57:03.186Z,5.80
2018-12-27T00:59:50.123Z,5.80
2018-12-27T01:02:17.681Z,5.80
2018-12-27T01:04:45.199Z,5.80
2018-12-27T01:07:12.638Z,5.80
2018-12-27T01:09:39.985Z,5.80
2018-12-27T01:12:07.309Z,5.80
2018-12-27T01:14:35.292Z,5.80
2018-12-27T01:17:22.107Z,5.80
2018-12-27T01:19:49.549Z,5.80
2018-12-27T01:22:17.067Z,5.80
2018-12-27T01:24:44.686Z,5.70
2018-12-27T01:27:12.130Z,5.70
2018-12-27T01:29:39.706Z,5.70
2018-12-27T01:32:07.462Z,5.70
2018-12-27T01:34:34.783Z,5.70
2018-12-27T01:37:02.226Z,5.70
2018-12-27T01:39:29.770Z,5.70
2018-12-27T01:41:57.120Z,5.70
2018-12-27T01:44:24.466Z,5.70
2018-12-27T01:46:52.035Z,5.70
2018-12-27T01:49:19.526Z,5.70
2018-12-27T01:51:46.841Z,5.70
2018-12-27T01:54:14.226Z,5.70
2018-12-27T01:56:41.550Z,5.70
2018-12-27T01:59:08.935Z,5.70
2018-12-27T02:01:36.282Z,5.70
2018-12-27T02:04:05.816Z,5.70
2018-12-27T02:06:33.553Z,5.70
2018-12-27T02:09:01.110Z,5.60
2018-12-27T02:11:29.182Z,5.60
2018-12-27T02:13:56.499Z,5.70
2018-12-27T02:16:24.088Z,5.60
2018-12-27T02:18:51.776Z,5.60
2018-12-27T02:21:19.337Z,5.60
2018-12-27T02:23:47.099Z,5.60
2018-12-27T02:26:14.736Z,5.60
2018-12-27T02:28:42.503Z,5.50
2018-12-27T02:31:09.995Z,5.50
2018-12-27T02:33:37.433Z,5.50
2018-12-27T02:36:05.274Z,5.50
2018-12-27T02:38:32.771Z,5.50
2018-12-27T02:41:00.251Z,5.50
2018-12-27T02:43:27.708Z,5.50
2018-12-27T02:45:54.923Z,5.40
2018-12-27T02:48:22.350Z,5.40
2018-12-27T02:50:49.874Z,5.40
2018-12-27T02:53:17.188Z,5.40
2018-12-27T02:55:44.514Z,5.40
2018-12-27T02:58:11.886Z,5.40
2018-12-27T03:00:39.407Z,5.40
2018-12-27T03:03:06.707Z,5.40
2018-12-27T03:05:33.923Z,5.40
2018-12-27T03:08:01.211Z,5.30
2018-12-27T03:10:28.470Z,5.30
2018-12-27T03:12:55.860Z,5.30
2018-12-27T03:15:23.238Z,5.30
2018-12-27T03:17:51.057Z,5.30
2018-12-27T03:20:18.504Z,5.30
2018-12-27T03:22:45.964Z,5.30
2018-12-27T03:25:13.251Z,5.30
2018-12-27T03:27:40.960Z,5.30
2018-12-27T03:30:08.367Z,5.30
2018-12-27T03:32:36.016Z,5.30
2018-12-27T03:35:03.371Z,5.20
2018-12-27T03:37:30.800Z,5.30
2018-12-27T03:39:58.240Z,5.20
2018-12-27T03:42:25.657Z,5.20
2018-12-27T03:44:53.127Z,5.20
2018-12-27T03:47:20.657Z,5.20
2018-12-27T03:49:48.066Z,5.20
2018-12-27T03:52:15.556Z,5.20
2018-12-27T03:54:42.951Z,5.20
2018-12-27T03:57:10.189Z,5.20
2018-12-27T03:59:37.482Z,5.20
2018-12-27T04:02:04.959Z,5.20
2018-12-27T04:04:32.262Z,5.20
2018-12-27T04:06:59.451Z,5.20
2018-12-27T04:09:26.872Z,5.20
2018-12-27T04:11:54.425Z,5.20
2018-12-27T04:14:21.862Z,5.20
2018-12-27T04:16:49.184Z,5.20
2018-12-27T04:19:16.530Z,5.20
2018-12-27T04:21:43.978Z,5.20
2018-12-27T04:24:11.695Z,5.20
2018-12-27T04:26:39.103Z,5.20
2018-12-27T04:29:06.526Z,5.20
2018-12-27T04:31:34.090Z,5.20
2018-12-27T04:34:09.329Z,5.20
2018-12-27T04:36:31.441Z,5.20
2018-12-27T04:38:58.819Z,5.20
2018-12-27T04:41:26.579Z,5.20
2018-12-27T04:43:54.117Z,5.20
2018-12-27T04:46:21.531Z,5.20
2018-12-27T04:48:49.068Z,5.20
2018-12-27T04:51:16.530Z,5.20
2018-12-27T04:53:43.996Z,5.20
2018-12-27T04:56:11.465Z,5.20
2018-12-27T04:58:39.027Z,5.30
2018-12-27T05:01:06.440Z,5.20
2018-12-27T05:03:33.977Z,5.30
2018-12-27T05:06:01.519Z,5.30
2018-12-27T05:08:28.964Z,5.30
2018-12-27T05:10:56.345Z,5.30
2018-12-27T05:13:23.879Z,5.30
2018-12-27T05:15:51.359Z,5.30
2018-12-27T05:18:18.691Z,5.30
2018-12-27T05:20:46.974Z,5.30
2018-12-27T05:23:14.374Z,5.30
2018-12-27T05:25:41.682Z,5.30
2018-12-27T05:28:09.173Z,5.30
2018-12-27T05:30:36.694Z,5.30
2018-12-27T05:33:04.234Z,5.30
2018-12-27T05:35:31.900Z,5.30
2018-12-27T05:37:59.414Z,5.30
2018-12-27T05:40:26.970Z,5.30
2018-12-27T05:42:54.422Z,5.30
2018-12-27T05:45:21.967Z,5.30
2018-12-27T05:47:49.406Z,5.30
2018-12-27T05:50:16.775Z,5.30
2018-12-27T05:52:44.766Z,5.30
2018-12-27T05:55:12.391Z,5.30
2018-12-27T05:57:39.879Z,5.30
2018-12-27T06:00:07.278Z,5.30
2018-12-27T06:02:34.578Z,5.30
2018-12-27T06:05:02.008Z,5.30
2018-12-27T06:07:29.780Z,5.30
2018-12-27T06:09:57.240Z,5.30
2018-12-27T06:12:24.780Z,5.40
2018-12-27T06:14:52.358Z,5.40
2018-12-27T06:17:19.826Z,5.40
2018-12-27T06:19:47.346Z,5.40
2018-12-27T06:22:14.626Z,5.40
2018-12-27T06:24:42.238Z,5.40
2018-12-27T06:27:09.631Z,5.40
2018-12-27T06:29:36.995Z,5.40
2018-12-27T06:32:04.632Z,5.40
2018-12-27T06:34:32.125Z,5.40
2018-12-27T06:36:59.615Z,5.40
2018-12-27T06:39:27.154Z,5.40
2018-12-27T06:41:54.817Z,5.40
2018-12-27T06:44:22.335Z,5.40
2018-12-27T06:46:49.780Z,5.40
2018-12-27T06:49:17.320Z,5.40
2018-12-27T06:51:44.810Z,5.40
2018-12-27T06:54:12.239Z,5.40
2018-12-27T06:56:39.885Z,5.40
2018-12-27T06:59:07.551Z,5.30
2018-12-27T07:01:34.937Z,5.30
2018-12-27T07:04:02.381Z,5.30
2018-12-27T07:06:30.064Z,5.30
2018-12-27T07:08:57.606Z,5.30
2018-12-27T07:11:25.163Z,5.30
2018-12-27T07:14:13.881Z,5.30
2018-12-27T07:16:41.445Z,5.30
2018-12-27T07:19:09.007Z,5.30
2018-12-27T07:21:36.490Z,5.30
2018-12-27T07:24:03.991Z,5.30
2018-12-27T07:26:31.486Z,5.30
2018-12-27T07:28:59.137Z,5.30
2018-12-27T07:31:26.478Z,5.30
2018-12-27T07:33:53.870Z,5.30
2018-12-27T07:36:21.324Z,5.30
2018-12-27T07:38:48.877Z,5.30
2018-12-27T07:41:16.446Z,5.30
2018-12-27T07:43:43.940Z,5.30
2018-12-27T07:46:11.393Z,5.30
2018-12-27T07:48:39.086Z,5.30
2018-12-27T07:51:06.581Z,5.40
2018-12-27T07:53:34.096Z,5.30
2018-12-27T07:56:01.609Z,5.30
2018-12-27T07:58:29.310Z,5.30
2018-12-27T08:01:09.912Z,5.40
2018-12-27T08:03:37.495Z,5.40
2018-12-27T08:06:05.119Z,5.40
2018-12-27T08:08:32.509Z,5.40
2018-12-27T08:11:00.126Z,5.40
2018-12-27T08:13:27.628Z,5.40
2018-12-27T08:15:55.042Z,5.40
2018-12-27T08:18:22.819Z,5.40
2018-12-27T08:20:50.433Z,5.40
2018-12-27T08:23:17.975Z,5.50
2018-12-27T08:25:45.810Z,5.50
2018-12-27T08:28:13.311Z,5.50
2018-12-27T08:30:40.870Z,5.50
2018-12-27T08:33:08.465Z,5.50
2018-12-27T08:35:36.132Z,5.50
2018-12-27T08:38:03.655Z,5.50
2018-12-27T08:40:31.111Z,5.50
2018-12-27T08:42:58.652Z,5.50
2018-12-27T08:45:26.547Z,5.50
2018-12-27T08:47:54.043Z,5.50
2018-12-27T08:50:21.642Z,5.50
2018-12-27T08:52:49.171Z,5.50
2018-12-27T08:55:16.824Z,5.50
2018-12-27T08:57:44.314Z,5.50
2018-12-27T09:00:11.816Z,5.50
2018-12-27T09:02:39.491Z,5.50
2018-12-27T09:05:07.008Z,5.50
2018-12-27T09:07:34.467Z,5.50
2018-12-27T09:10:01.981Z,5.50
2018-12-27T09:12:29.686Z,5.50
2018-12-27T09:14:57.399Z,5.50
2018-12-27T09:17:24.871Z,5.60
2018-12-27T09:19:52.509Z,5.50
2018-12-27T09:22:20.313Z,5.50
2018-12-27T09:24:48.545Z,5.50
2018-12-27T09:27:16.151Z,5.50
2018-12-27T09:29:43.507Z,5.50
2018-12-27T09:32:11.153Z,5.50
2018-12-27T09:34:38.674Z,5.50
2018-12-27T09:37:06.288Z,5.50
2018-12-27T09:39:33.699Z,5.50
2018-12-27T09:42:01.039Z,5.50
2018-12-27T09:44:28.770Z,5.60
2018-12-27T09:46:56.256Z,5.60
2018-12-27T09:49:23.990Z,5.60
2018-12-27T09:51:51.593Z,5.60
2018-12-27T09:54:19.130Z,5.60
2018-12-27T09:56:47.123Z,5.60
2018-12-27T09:59:14.558Z,5.60
2018-12-27T10:01:42.104Z,5.60
2018-12-27T10:04:09.574Z,5.60
2018-12-27T10:06:37.149Z,5.60
2018-12-27T10:09:05.975Z,5.70
2018-12-27T10:11:33.366Z,5.70
2018-12-27T10:14:00.847Z,5.70
2018-12-27T10:16:28.150Z,5.70
2018-12-27T10:18:57.717Z,5.70
2018-12-27T10:21:25.099Z,5.80
2018-12-27T10:23:52.558Z,5.80
2018-12-27T10:26:20.239Z,5.80
2018-12-27T10:28:48.276Z,5.80
2018-12-27T10:31:15.703Z,5.80
2018-12-27T10:33:43.316Z,5.80
2018-12-27T10:36:10.769Z,5.80
2018-12-27T10:38:38.326Z,5.90
2018-12-27T10:41:05.796Z,5.90
2018-12-27T10:43:33.106Z,5.90
2018-12-27T10:46:00.562Z,5.90
2018-12-27T10:48:28.069Z,6.00
2018-12-27T10:50:55.507Z,6.00
2018-12-27T10:53:22.956Z,6.00
2018-12-27T10:55:50.514Z,6.00
2018-12-27T10:58:17.904Z,6.10
2018-12-27T11:00:45.364Z,6.10
2018-12-27T11:03:12.815Z,6.00
2018-12-27T11:05:40.252Z,6.10
2018-12-27T11:08:07.657Z,6.10
2018-12-27T11:10:35.086Z,6.10
2018-12-27T11:13:02.516Z,6.10
2018-12-27T11:15:30.034Z,6.10
2018-12-27T11:17:57.333Z,6.10
2018-12-27T11:20:24.747Z,6.10
2018-12-27T11:22:52.287Z,6.20
2018-12-27T11:25:19.805Z,6.10
2018-12-27T11:27:47.396Z,6.10
2018-12-27T11:30:14.919Z,6.10
2018-12-27T11:32:42.274Z,6.10
2018-12-27T11:35:09.894Z,6.10
2018-12-27T11:37:37.479Z,6.10
2018-12-27T11:40:05.020Z,6.10
2018-12-27T11:42:32.403Z,6.10
2018-12-27T11:44:59.813Z,6.10
2018-12-27T11:47:27.371Z,6.10
2018-12-27T11:49:54.835Z,6.10
2018-12-27T11:52:22.251Z,6.20
2018-12-27T11:54:49.629Z,6.20
2018-12-27T11:57:17.115Z,6.20
2018-12-27T11:59:44.747Z,6.20
2018-12-27T12:02:12.275Z,6.20
2018-12-27T12:04:39.661Z,6.20
2018-12-27T12:07:07.080Z,6.20
2018-12-27T12:09:34.458Z,6.20
2018-12-27T12:12:01.739Z,6.20
2018-12-27T12:14:29.241Z,6.30
2018-12-27T12:16:56.779Z,6.20
2018-12-27T12:19:24.491Z,6.20
2018-12-27T12:21:51.923Z,6.20
2018-12-27T12:24:19.379Z,6.20
2018-12-27T12:26:46.827Z,6.20
2018-12-27T12:29:14.568Z,6.20
2018-12-27T12:31:42.296Z,6.20
2018-12-27T12:34:09.794Z,6.20
2018-12-27T12:36:37.348Z,6.20
2018-12-27T12:39:06.218Z,6.20
2018-12-27T12:41:33.687Z,6.20
2018-12-27T12:44:01.287Z,6.20
2018-12-27T12:46:28.869Z,6.20
2018-12-27T12:48:56.266Z,6.20
2018-12-27T12:51:23.763Z,6.20
2018-12-27T12:53:51.422Z,6.20
2018-12-27T12:56:18.943Z,6.20
2018-12-27T12:58:46.428Z,6.20
2018-12-27T13:01:13.856Z,6.20
2018-12-27T13:03:41.569Z,6.20
2018-12-27T13:06:09.030Z,6.20
2018-12-27T13:08:36.355Z,6.20
2018-12-27T13:11:03.885Z,6.20
2018-12-27T13:13:31.231Z,6.20
2018-12-27T13:15:58.842Z,6.20
2018-12-27T13:18:26.407Z,6.20
2018-12-27T13:20:53.908Z,6.20
2018-12-27T13:23:21.478Z,6.20
2018-12-27T13:25:48.819Z,6.20
2018-12-27T13:28:16.314Z,6.20
2018-12-27T13:30:43.670Z,6.20
2018-12-27T13:33:11.255Z,6.20
2018-12-27T13:35:38.773Z,6.20
2018-12-27T13:38:06.297Z,6.20
2018-12-27T13:40:33.887Z,6.20
2018-12-27T13:43:01.299Z,6.20
2018-12-27T13:45:28.738Z,6.20
2018-12-27T13:47:56.154Z,6.20
2018-12-27T13:50:23.538Z,6.20
2018-12-27T13:52:50.993Z,6.20
2018-12-27T13:55:18.465Z,6.20
2018-12-27T13:57:45.884Z,6.20
2018-12-27T14:00:13.265Z,6.20
2018-12-27T14:02:40.848Z,6.20
2018-12-27T14:05:08.142Z,6.20
2018-12-27T14:07:35.567Z,6.20
2018-12-27T14:10:03.376Z,6.20
2018-12-27T14:12:31.987Z,6.20
2018-12-27T14:14:59.607Z,6.20
2018-12-27T14:17:27.031Z,6.20
2018-12-27T14:20:00.663Z,6.10
2018-12-27T14:22:28.217Z,6.10
2018-12-27T14:24:58.030Z,6.20
2018-12-27T14:27:25.831Z,6.10
2018-12-27T14:29:53.810Z,6.20
2018-12-27T14:32:21.280Z,6.10
2018-12-27T14:34:49.346Z,6.10
2018-12-27T14:37:16.999Z,6.10
2018-12-27T14:39:44.482Z,6.10
2018-12-27T14:42:11.893Z,6.10
2018-12-27T14:44:39.384Z,6.10
2018-12-27T14:47:06.896Z,6.10
2018-12-27T14:49:34.151Z,6.10
2018-12-27T14:52:01.688Z,6.10
2018-12-27T14:54:29.103Z,6.10
2018-12-27T14:56:56.586Z,6.10
2018-12-27T14:59:24.036Z,6.10
2018-12-27T15:01:51.504Z,6.10
2018-12-27T15:04:18.908Z,6.00
2018-12-27T15:06:47.850Z,6.00
2018-12-27T15:09:18.345Z,6.00
2018-12-27T15:11:46.088Z,6.00
2018-12-27T15:14:33.148Z,6.00
2018-12-27T15:17:00.682Z,6.00
2018-12-27T15:19:28.106Z,6.00
2018-12-27T15:21:55.528Z,6.00
2018-12-27T15:24:23.154Z,6.00
2018-12-27T15:26:50.630Z,6.00
2018-12-27T15:29:18.047Z,6.00
2018-12-27T15:31:45.399Z,6.00
2018-12-27T15:34:12.861Z,5.90
2018-12-27T15:36:40.382Z,5.90
2018-12-27T15:39:07.946Z,5.90
2018-12-27T15:41:35.489Z,5.90
2018-12-27T15:44:03.050Z,5.90
2018-12-27T15:46:30.534Z,5.90
2018-12-27T15:48:58.153Z,5.90
2018-12-27T15:51:25.626Z,5.90
2018-12-27T15:53:53.398Z,5.90
2018-12-27T15:56:20.817Z,5.90
2018-12-27T15:58:48.944Z,5.90
2018-12-27T16:01:16.479Z,5.90
2018-12-27T16:03:43.977Z,5.80
2018-12-27T16:06:11.356Z,5.80
2018-12-27T16:08:38.903Z,5.80
2018-12-27T16:11:06.332Z,5.80
2018-12-27T16:13:33.761Z,5.80
2018-12-27T16:16:01.382Z,5.80
2018-12-27T16:18:28.780Z,5.80
2018-12-27T16:20:56.439Z,5.80
2018-12-27T16:23:23.782Z,5.80
2018-12-27T16:25:51.359Z,5.80
2018-12-27T16:28:18.634Z,5.80
2018-12-27T16:30:45.983Z,5.80
2018-12-27T16:33:13.641Z,5.80
2018-12-27T16:35:41.207Z,5.80
2018-12-27T16:38:08.686Z,5.80
2018-12-27T16:40:36.294Z,5.80
2018-12-27T16:43:03.715Z,5.80
2018-12-27T16:45:31.075Z,5.80
2018-12-27T16:47:59.031Z,5.80
2018-12-27T16:50:26.442Z,5.80
2018-12-27T16:52:53.976Z,5.80
2018-12-27T16:55:21.401Z,5.80
2018-12-27T16:57:48.862Z,5.80
2018-12-27T17:00:16.319Z,5.70
2018-12-27T17:02:43.706Z,5.80
2018-12-27T17:05:11.090Z,5.70
2018-12-27T17:07:38.486Z,5.70
2018-12-27T17:10:06.215Z,5.70
2018-12-27T17:12:33.707Z,5.70
2018-12-27T17:15:01.136Z,5.70
2018-12-27T17:17:28.502Z,5.80
2018-12-27T17:19:55.976Z,5.70
2018-12-27T17:22:23.438Z,5.70
2018-12-27T17:24:52.664Z,5.70
2018-12-27T17:27:20.257Z,5.70
2018-12-27T17:29:47.652Z,5.70
2018-12-27T17:32:15.138Z,5.70
2018-12-27T17:34:42.665Z,5.70
2018-12-27T17:37:10.142Z,5.70
2018-12-27T17:39:37.555Z,5.70
2018-12-27T17:42:04.986Z,5.70
2018-12-27T17:44:32.424Z,5.70
2018-12-27T17:47:00.126Z,5.70
2018-12-27T17:49:27.591Z,5.70
2018-12-27T17:51:55.133Z,5.70
2018-12-27T17:54:22.614Z,5.70
2018-12-27T17:56:50.871Z,5.70
2018-12-27T17:59:18.435Z,5.60
2018-12-27T18:01:46.002Z,5.70
2018-12-27T18:04:13.442Z,5.70
2018-12-27T18:06:40.967Z,5.60
2018-12-27T18:09:08.392Z,5.60
2018-12-27T18:11:35.747Z,5.60
2018-12-27T18:14:03.357Z,5.60
2018-12-27T18:16:30.851Z,5.60
2018-12-27T18:18:58.444Z,5.60
2018-12-27T18:21:25.941Z,5.60
2018-12-27T18:23:53.366Z,5.60
2018-12-27T18:26:21.516Z,5.60
2018-12-27T18:28:49.143Z,5.60
2018-12-27T18:31:16.638Z,5.60
2018-12-27T18:33:56.346Z,5.60
2018-12-27T18:36:23.810Z,5.70
2018-12-27T18:38:53.407Z,5.70
2018-12-27T18:41:32.072Z,5.60
2018-12-27T18:43:59.940Z,5.70
2018-12-27T18:46:27.331Z,5.60
2018-12-27T18:48:54.862Z,5.60
2018-12-27T18:51:22.409Z,5.60
2018-12-27T18:53:49.996Z,5.70
2018-12-27T18:56:18.714Z,5.70
2018-12-27T18:58:46.695Z,5.60
2018-12-27T19:01:14.260Z,5.60
2018-12-27T19:03:41.809Z,5.60
2018-12-27T19:06:09.456Z,5.60
2018-12-27T19:12:51.230Z,5.60
2018-12-27T19:15:21.647Z,5.60
2018-12-27T19:18:14.027Z,5.60
2018-12-27T19:20:43.005Z,5.60
2018-12-27T19:23:16.559Z,5.60
2018-12-27T19:25:45.091Z,5.60
2018-12-27T19:28:13.713Z,5.60
2018-12-27T19:30:41.382Z,5.60
2018-12-27T19:33:08.838Z,5.60
2018-12-27T19:35:36.580Z,5.60
2018-12-27T19:38:06.745Z,5.70
2018-12-27T19:40:34.941Z,5.70
2018-12-27T19:43:02.911Z,5.70
2018-12-27T19:45:31.252Z,5.70
2018-12-27T19:47:59.924Z,5.70
2018-12-27T19:50:28.614Z,5.70
2018-12-27T19:52:57.510Z,5.70
2018-12-27T19:55:25.682Z,5.70
2018-12-27T19:57:54.486Z,5.70
2018-12-27T20:00:23.880Z,5.70
2018-12-27T20:02:53.687Z,5.70
2018-12-27T20:05:22.505Z,5.70
2018-12-27T20:08:10.875Z,5.70
2018-12-27T20:10:39.510Z,5.70
2018-12-27T20:13:08.333Z,5.70
2018-12-27T20:15:37.429Z,5.70
2018-12-27T20:18:06.425Z,5.70
2018-12-27T20:20:34.866Z,5.70
2018-12-27T20:23:03.705Z,5.70
2018-12-27T20:25:32.594Z,5.70
2018-12-27T20:28:01.987Z,5.70
2018-12-27T20:30:30.853Z,5.70
2018-12-27T20:32:59.732Z,5.70
2018-12-27T20:35:28.419Z,5.80
2018-12-27T20:37:57.524Z,5.80
2018-12-27T20:40:26.816Z,5.80
2018-12-27T20:42:55.711Z,5.80
2018-12-27T20:45:24.470Z,5.80
2018-12-27T20:47:52.978Z,5.80
2018-12-27T20:50:21.310Z,5.80
2018-12-27T20:52:50.760Z,5.80
2018-12-27T20:55:19.556Z,5.80
2018-12-27T20:57:47.993Z,5.80
2018-12-27T21:00:16.649Z,5.80
2018-12-27T21:02:45.424Z,5.80
2018-12-27T21:05:13.808Z,5.80
2018-12-27T21:07:41.415Z,5.80
2018-12-27T21:10:09.214Z,5.80
2018-12-27T21:12:37.190Z,5.80
2018-12-27T21:15:04.989Z,5.80
2018-12-27T21:17:33.328Z,5.80
2018-12-27T21:20:01.004Z,5.80
2018-12-27T21:22:28.585Z,5.80
2018-12-27T21:24:58.088Z,5.80
2018-12-27T21:27:25.945Z,5.80
2018-12-27T21:29:53.847Z,5.80
2018-12-27T21:32:22.737Z,5.80
2018-12-27T21:34:50.959Z,5.80
2018-12-27T21:37:37.883Z,5.80
2018-12-27T21:40:05.448Z,5.80
2018-12-27T21:42:32.936Z,5.80
2018-12-27T21:45:00.291Z,5.80
2018-12-27T21:47:27.880Z,5.80
2018-12-27T21:49:55.160Z,5.80
2018-12-27T21:52:22.550Z,5.80
2018-12-27T21:54:50.165Z,5.80
2018-12-27T21:57:18.507Z,5.80
2018-12-27T21:59:45.863Z,5.80
2018-12-27T22:02:13.203Z,5.80
2018-12-27T22:04:40.633Z,5.80
2018-12-27T22:07:08.122Z,5.80
2018-12-27T22:09:35.656Z,5.80
2018-12-27T22:12:04.322Z,5.80
2018-12-27T22:14:32.113Z,5.80
2018-12-27T22:16:59.607Z,5.80
2018-12-27T22:19:27.151Z,5.80
2018-12-27T22:22:14.155Z,5.80
2018-12-27T22:24:41.563Z,5.70
2018-12-27T22:27:09.011Z,5.70
2018-12-27T22:29:36.283Z,5.80
2018-12-27T22:32:03.784Z,5.80
2018-12-27T22:34:31.303Z,5.80
2018-12-27T22:36:58.848Z,5.70
2018-12-27T22:39:26.235Z,5.70
2018-12-27T22:41:53.606Z,5.70
2018-12-27T22:44:21.082Z,5.70
2018-12-27T22:46:48.679Z,5.70
2018-12-27T22:49:16.003Z,5.70
2018-12-27T22:51:43.555Z,5.70
2018-12-27T22:54:10.960Z,5.70
2018-12-27T22:56:38.506Z,5.70
2018-12-27T22:59:06.033Z,5.70
2018-12-27T23:01:33.593Z,5.70
2018-12-27T23:04:01.179Z,5.70
2018-12-27T23:06:28.767Z,5.70
2018-12-27T23:08:56.392Z,5.70
2018-12-27T23:11:24.057Z,5.70
2018-12-27T23:13:51.611Z,5.70
2018-12-27T23:16:19.202Z,5.70
2018-12-27T23:18:46.636Z,5.70
2018-12-27T23:21:14.945Z,5.70
2018-12-27T23:23:42.472Z,5.70
2018-12-27T23:26:09.900Z,5.70
2018-12-27T23:28:50.433Z,5.70
2018-12-27T23:31:17.940Z,5.70
2018-12-27T23:33:45.463Z,5.70
2018-12-27T23:36:12.893Z,5.80
2018-12-27T23:38:40.392Z,5.70
2018-12-27T23:41:07.966Z,5.70
2018-12-27T23:43:35.490Z,5.80
2018-12-27T23:46:02.912Z,5.80
2018-12-27T23:48:30.514Z,5.70
2018-12-27T23:50:58.017Z,5.80
2018-12-27T23:53:25.477Z,5.80
2018-12-27T23:55:52.855Z,5.80
2018-12-27T23:58:20.424Z,5.80
